sensor_id;sensor_type;location;lat;lon;timestamp;pressure;altitude;pressure_sealevel;temperature;humidity
83894;BME280;73920;51.902;6.374;2024-01-30T00:02:15;102645.31;;;7.64;81.83
83894;BME280;73920;51.902;6.374;2024-01-30T00:04:41;102652.47;;;7.62;81.72
83894;BME280;73920;51.902;6.374;2024-01-30T00:07:08;102647.19;;;7.58;81.69
83894;BME280;73920;51.902;6.374;2024-01-30T00:09:34;102641.09;;;7.51;82.07
83894;BME280;73920;51.902;6.374;2024-01-30T00:12:00;102634.03;;;7.47;81.91
83894;BME280;73920;51.902;6.374;2024-01-30T00:14:26;102634.09;;;7.42;82.03
83894;BME280;73920;51.902;6.374;2024-01-30T00:16:53;102640.34;;;7.38;82.24
83894;BME280;73920;51.902;6.374;2024-01-30T00:19:19;102638.59;;;7.36;82.47
83894;BME280;73920;51.902;6.374;2024-01-30T00:21:45;102632.41;;;7.37;82.50
83894;BME280;73920;51.902;6.374;2024-01-30T00:24:12;102632.41;;;7.37;82.47
83894;BME280;73920;51.902;6.374;2024-01-30T00:26:38;102626.16;;;7.38;82.16
83894;BME280;73920;51.902;6.374;2024-01-30T00:29:04;102590.94;;;7.19;82.25
83894;BME280;73920;51.902;6.374;2024-01-30T00:31:30;102636.78;;;7.39;82.35
83894;BME280;73920;51.902;6.374;2024-01-30T00:33:56;102634.97;;;7.41;82.59
83894;BME280;73920;51.902;6.374;2024-01-30T00:36:23;102634.03;;;7.47;82.07
83894;BME280;73920;51.902;6.374;2024-01-30T00:38:49;102638.47;;;7.47;82.23
83894;BME280;73920;51.902;6.374;2024-01-30T00:41:17;102638.47;;;7.47;81.91
83894;BME280;73920;51.902;6.374;2024-01-30T00:43:44;102636.69;;;7.46;82.27
83894;BME280;73920;51.902;6.374;2024-01-30T00:46:10;102636.69;;;7.46;82.05
83894;BME280;73920;51.902;6.374;2024-01-30T00:48:36;102637.63;;;7.43;82.09
83894;BME280;73920;51.902;6.374;2024-01-30T00:51:03;102637.69;;;7.40;82.33
83894;BME280;73920;51.902;6.374;2024-01-30T00:53:29;102634.13;;;7.38;82.25
83894;BME280;73920;51.902;6.374;2024-01-30T00:55:55;102632.44;;;7.34;81.99
83894;BME280;73920;51.902;6.374;2024-01-30T00:58:22;102629.84;;;7.29;82.51
83894;BME280;73920;51.902;6.374;2024-01-30T01:00:48;102637.91;;;7.23;82.32
83894;BME280;73920;51.902;6.374;2024-01-30T01:03:14;102629.97;;;7.17;82.35
83894;BME280;73920;51.902;6.374;2024-01-30T01:05:40;102629.16;;;7.11;82.62
83894;BME280;73920;51.902;6.374;2024-01-30T01:08:07;102627.47;;;7.05;82.26
83894;BME280;73920;51.902;6.374;2024-01-30T01:10:33;102631.91;;;7.03;82.46
83894;BME280;73920;51.902;6.374;2024-01-30T01:12:59;102627.50;;;7.01;82.61
83894;BME280;73920;51.902;6.374;2024-01-30T01:15:25;102623.13;;;6.98;82.69
83894;BME280;73920;51.902;6.374;2024-01-30T01:17:52;102626.72;;;6.94;82.63
83894;BME280;73920;51.902;6.374;2024-01-30T01:20:18;102615.19;;;6.92;82.66
83894;BME280;73920;51.902;6.374;2024-01-30T01:22:44;102624.97;;;6.90;82.40
83894;BME280;73920;51.902;6.374;2024-01-30T01:25:10;102615.22;;;6.89;83.17
83894;BME280;73920;51.902;6.374;2024-01-30T01:27:37;102617.84;;;6.92;83.11
83894;BME280;73920;51.902;6.374;2024-01-30T01:30:04;102621.38;;;6.94;83.44
83894;BME280;73920;51.902;6.374;2024-01-30T01:32:30;102623.13;;;6.95;83.09
83894;BME280;73920;51.902;6.374;2024-01-30T01:34:56;102618.72;;;6.92;83.04
83894;BME280;73920;51.902;6.374;2024-01-30T01:37:22;102623.13;;;6.97;83.41
83894;BME280;73920;51.902;6.374;2024-01-30T01:39:49;102624.91;;;6.98;83.18
83894;BME280;73920;51.902;6.374;2024-01-30T01:42:15;102621.31;;;7.00;83.25
83894;BME280;73920;51.902;6.374;2024-01-30T01:44:41;102614.22;;;6.99;82.81
83894;BME280;73920;51.902;6.374;2024-01-30T01:47:08;102609.81;;;6.98;83.27
83894;BME280;73920;51.902;6.374;2024-01-30T01:49:34;102579.81;;;6.84;82.94
83894;BME280;73920;51.902;6.374;2024-01-30T01:52:01;102608.91;;;6.99;83.55
83894;BME280;73920;51.902;6.374;2024-01-30T01:54:28;102613.34;;;7.00;83.82
83894;BME280;73920;51.902;6.374;2024-01-30T01:56:55;102610.66;;;7.00;83.75
83894;BME280;73920;51.902;6.374;2024-01-30T01:59:22;102608.00;;;7.00;83.51
83894;BME280;73920;51.902;6.374;2024-01-30T02:01:50;102606.25;;;7.01;83.55
83894;BME280;73920;51.902;6.374;2024-01-30T02:04:17;102607.13;;;7.00;83.68
83894;BME280;73920;51.902;6.374;2024-01-30T02:06:43;102600.97;;;6.98;83.74
83894;BME280;73920;51.902;6.374;2024-01-30T02:09:10;102600.03;;;7.00;83.42
83894;BME280;73920;51.902;6.374;2024-01-30T02:11:36;102599.16;;;7.01;83.59
83894;BME280;73920;51.902;6.374;2024-01-30T02:14:03;102605.31;;;7.03;83.49
83894;BME280;73920;51.902;6.374;2024-01-30T02:16:29;102604.38;;;7.07;83.82
83894;BME280;73920;51.902;6.374;2024-01-30T02:18:56;102588.38;;;7.12;83.56
83894;BME280;73920;51.902;6.374;2024-01-30T02:21:22;102588.34;;;7.15;83.49
83894;BME280;73920;51.902;6.374;2024-01-30T02:23:49;102591.84;;;7.18;83.62
83894;BME280;73920;51.902;6.374;2024-01-30T02:26:15;102587.34;;;7.22;83.59
83894;BME280;73920;51.902;6.374;2024-01-30T02:28:42;102582.87;;;7.25;83.26
83894;BME280;73920;51.902;6.374;2024-01-30T02:31:08;102588.19;;;7.27;83.06
83894;BME280;73920;51.902;6.374;2024-01-30T02:33:34;102574.84;;;7.28;83.32
83894;BME280;73920;51.902;6.374;2024-01-30T02:36:00;102573.91;;;7.31;83.39
83894;BME280;73920;51.902;6.374;2024-01-30T02:38:27;102576.56;;;7.32;83.41
83894;BME280;73920;51.902;6.374;2024-01-30T02:40:53;102572.09;;;7.34;83.12
83894;BME280;73920;51.902;6.374;2024-01-30T02:43:19;102578.34;;;7.33;83.04
83894;BME280;73920;51.902;6.374;2024-01-30T02:45:46;102572.97;;;7.35;82.95
83894;BME280;73920;51.902;6.374;2024-01-30T02:48:12;102575.63;;;7.36;83.02
83894;BME280;73920;51.902;6.374;2024-01-30T02:50:38;102567.66;;;7.35;82.82
83894;BME280;73920;51.902;6.374;2024-01-30T02:53:04;102563.22;;;7.37;82.94
83894;BME280;73920;51.902;6.374;2024-01-30T02:55:30;102570.31;;;7.36;83.08
83894;BME280;73920;51.902;6.374;2024-01-30T02:57:57;102568.59;;;7.34;82.99
83894;BME280;73920;51.902;6.374;2024-01-30T03:00:24;102567.69;;;7.32;82.95
83894;BME280;73920;51.902;6.374;2024-01-30T03:02:50;102571.25;;;7.32;83.07
83894;BME280;73920;51.902;6.374;2024-01-30T03:05:16;102566.81;;;7.31;82.78
83894;BME280;73920;51.902;6.374;2024-01-30T03:07:42;102557.06;;;7.32;83.01
83894;BME280;73920;51.902;6.374;2024-01-30T03:10:09;102560.59;;;7.31;83.17
83894;BME280;73920;51.902;6.374;2024-01-30T03:12:35;102554.44;;;7.27;83.11
83894;BME280;73920;51.902;6.374;2024-01-30T03:15:02;102547.41;;;7.26;83.22
83894;BME280;73920;51.902;6.374;2024-01-30T03:17:28;102541.25;;;7.21;83.14
83894;BME280;73920;51.902;6.374;2024-01-30T03:19:54;102544.78;;;7.20;83.39
83894;BME280;73920;51.902;6.374;2024-01-30T03:22:21;102542.19;;;7.17;83.27
83894;BME280;73920;51.902;6.374;2024-01-30T03:24:47;102547.53;;;7.16;82.97
83894;BME280;73920;51.902;6.374;2024-01-30T03:27:13;102539.56;;;7.14;83.56
83894;BME280;73920;51.902;6.374;2024-01-30T03:29:39;102533.41;;;7.11;83.14
83894;BME280;73920;51.902;6.374;2024-01-30T03:32:06;102546.75;;;7.08;83.57
83894;BME280;73920;51.902;6.374;2024-01-30T03:34:32;102547.66;;;7.07;83.39
83894;BME280;73920;51.902;6.374;2024-01-30T03:36:58;102552.06;;;7.06;83.58
83894;BME280;73920;51.902;6.374;2024-01-30T03:39:24;102546.78;;;7.05;84.04
83894;BME280;73920;51.902;6.374;2024-01-30T03:41:51;102538.81;;;7.05;83.51
83894;BME280;73920;51.902;6.374;2024-01-30T03:44:17;102538.81;;;7.05;83.82
83894;BME280;73920;51.902;6.374;2024-01-30T03:46:43;102530.84;;;7.03;83.57
83894;BME280;73920;51.902;6.374;2024-01-30T03:49:10;102532.63;;;7.03;83.53
83894;BME280;73920;51.902;6.374;2024-01-30T03:51:36;102530.84;;;7.03;83.75
83894;BME280;73920;51.902;6.374;2024-01-30T03:54:02;102531.75;;;7.02;83.63
83894;BME280;73920;51.902;6.374;2024-01-30T03:56:29;102533.53;;;7.02;83.34
83894;BME280;73920;51.902;6.374;2024-01-30T03:58:55;102530.84;;;7.03;83.64
83894;BME280;73920;51.902;6.374;2024-01-30T04:01:22;102528.19;;;7.03;83.70
83894;BME280;73920;51.902;6.374;2024-01-30T04:03:48;102518.44;;;7.05;83.76
83894;BME280;73920;51.902;6.374;2024-01-30T04:06:14;102519.28;;;7.07;83.52
83894;BME280;73920;51.902;6.374;2024-01-30T04:08:40;102521.94;;;7.07;83.81
83894;BME280;73920;51.902;6.374;2024-01-30T04:11:07;102518.37;;;7.08;83.63
83894;BME280;73920;51.902;6.374;2024-01-30T04:13:34;102508.59;;;7.10;83.76
83894;BME280;73920;51.902;6.374;2024-01-30T04:16:00;102506.81;;;7.11;83.61
83894;BME280;73920;51.902;6.374;2024-01-30T04:18:27;102505.03;;;7.11;83.32
83894;BME280;73920;51.902;6.374;2024-01-30T04:20:54;102496.22;;;7.06;83.28
83894;BME280;73920;51.902;6.374;2024-01-30T04:23:20;102500.56;;;7.13;83.36
83894;BME280;73920;51.902;6.374;2024-01-30T04:25:47;102501.41;;;7.17;83.33
83894;BME280;73920;51.902;6.374;2024-01-30T04:28:13;102489.88;;;7.16;83.69
83894;BME280;73920;51.902;6.374;2024-01-30T04:30:40;102499.62;;;7.19;83.38
83894;BME280;73920;51.902;6.374;2024-01-30T04:33:06;102495.13;;;7.21;83.55
83894;BME280;73920;51.902;6.374;2024-01-30T04:35:32;102496.91;;;7.23;83.10
83894;BME280;73920;51.902;6.374;2024-01-30T04:37:58;102501.28;;;7.24;83.12
83894;BME280;73920;51.902;6.374;2024-01-30T04:40:25;102504.84;;;7.25;83.04
83894;BME280;73920;51.902;6.374;2024-01-30T04:42:51;102510.16;;;7.26;83.11
83894;BME280;73920;51.902;6.374;2024-01-30T04:45:18;102518.97;;;7.28;83.32
83894;BME280;73920;51.902;6.374;2024-01-30T04:47:44;102521.63;;;7.28;83.00
83894;BME280;73920;51.902;6.374;2024-01-30T04:50:10;102520.69;;;7.31;83.35
83894;BME280;73920;51.902;6.374;2024-01-30T04:52:36;102518.94;;;7.31;82.91
83894;BME280;73920;51.902;6.374;2024-01-30T04:55:04;102522.47;;;7.33;83.33
83894;BME280;73920;51.902;6.374;2024-01-30T04:57:30;102519.81;;;7.33;83.24
83894;BME280;73920;51.902;6.374;2024-01-30T04:59:56;102510.91;;;7.34;82.83
83894;BME280;73920;51.902;6.374;2024-01-30T05:02:23;102511.81;;;7.33;83.12
83894;BME280;73920;51.902;6.374;2024-01-30T05:04:49;102510.94;;;7.33;83.15
83894;BME280;73920;51.902;6.374;2024-01-30T05:07:15;102502.97;;;7.31;83.17
83894;BME280;73920;51.902;6.374;2024-01-30T05:09:41;102511.81;;;7.33;83.14
83894;BME280;73920;51.902;6.374;2024-01-30T05:12:08;102504.72;;;7.32;82.85
83894;BME280;73920;51.902;6.374;2024-01-30T05:14:34;102501.19;;;7.33;83.17
83894;BME280;73920;51.902;6.374;2024-01-30T05:17:00;102500.25;;;7.34;82.82
83894;BME280;73920;51.902;6.374;2024-01-30T05:19:26;102507.34;;;7.35;82.79
83894;BME280;73920;51.902;6.374;2024-01-30T05:21:52;102500.25;;;7.34;82.85
83894;BME280;73920;51.902;6.374;2024-01-30T05:24:19;102501.97;;;7.38;82.87
83894;BME280;73920;51.902;6.374;2024-01-30T05:26:45;102503.72;;;7.39;82.88
83894;BME280;73920;51.902;6.374;2024-01-30T05:29:11;102501.97;;;7.40;82.58
83894;BME280;73920;51.902;6.374;2024-01-30T05:31:37;102503.72;;;7.39;82.72
83894;BME280;73920;51.902;6.374;2024-01-30T05:34:04;102501.06;;;7.39;82.60
83894;BME280;73920;51.902;6.374;2024-01-30T05:36:30;102464.03;;;7.24;82.68
83894;BME280;73920;51.902;6.374;2024-01-30T05:38:56;102489.50;;;7.43;83.10
83894;BME280;73920;51.902;6.374;2024-01-30T05:41:23;102492.97;;;7.49;82.76
83894;BME280;73920;51.902;6.374;2024-01-30T05:43:49;102488.47;;;7.52;82.82
83894;BME280;73920;51.902;6.374;2024-01-30T05:46:15;102493.75;;;7.55;82.42
83894;BME280;73920;51.902;6.374;2024-01-30T05:48:41;102467.31;;;7.43;82.35
83894;BME280;73920;51.902;6.374;2024-01-30T05:51:08;102499.84;;;7.60;82.54
83894;BME280;73920;51.902;6.374;2024-01-30T05:53:34;102494.53;;;7.60;82.71
83894;BME280;73920;51.902;6.374;2024-01-30T05:56:05;102498.06;;;7.61;82.24
83894;BME280;73920;51.902;6.374;2024-01-30T05:58:31;102500.75;;;7.61;82.23
83894;BME280;73920;51.902;6.374;2024-01-30T06:00:58;102502.53;;;7.60;82.63
83894;BME280;73920;51.902;6.374;2024-01-30T06:03:24;102508.72;;;7.61;82.50
83894;BME280;73920;51.902;6.374;2024-01-30T06:05:50;102512.28;;;7.60;82.80
83894;BME280;73920;51.902;6.374;2024-01-30T06:08:17;102505.28;;;7.56;82.38
83894;BME280;73920;51.902;6.374;2024-01-30T06:10:43;102503.50;;;7.55;82.55
83894;BME280;73920;51.902;6.374;2024-01-30T06:13:09;102508.84;;;7.55;82.69
83894;BME280;73920;51.902;6.374;2024-01-30T06:15:36;102506.16;;;7.55;82.20
83894;BME280;73920;51.902;6.374;2024-01-30T06:18:02;102502.62;;;7.56;82.47
83894;BME280;73920;51.902;6.374;2024-01-30T06:20:28;102496.38;;;7.57;82.59
83894;BME280;73920;51.902;6.374;2024-01-30T06:22:54;102500.78;;;7.58;82.43
83894;BME280;73920;51.902;6.374;2024-01-30T06:25:21;102499.84;;;7.60;82.23
83894;BME280;73920;51.902;6.374;2024-01-30T06:27:47;102501.63;;;7.63;82.26
83894;BME280;73920;51.902;6.374;2024-01-30T06:30:14;102497.19;;;7.62;82.51
83894;BME280;73920;51.902;6.374;2024-01-30T06:32:40;102488.31;;;7.63;82.47
83894;BME280;73920;51.902;6.374;2024-01-30T06:35:07;102498.94;;;7.63;82.52
83894;BME280;73920;51.902;6.374;2024-01-30T06:37:34;102490.97;;;7.61;82.20
83894;BME280;73920;51.902;6.374;2024-01-30T06:40:00;102496.31;;;7.61;82.12
83894;BME280;73920;51.902;6.374;2024-01-30T06:42:26;102489.19;;;7.62;82.40
83894;BME280;73920;51.902;6.374;2024-01-30T06:44:53;102493.63;;;7.63;81.85
83894;BME280;73920;51.902;6.374;2024-01-30T06:47:19;102497.13;;;7.65;82.39
83894;BME280;73920;51.902;6.374;2024-01-30T06:49:45;102497.97;;;7.68;82.42
83894;BME280;73920;51.902;6.374;2024-01-30T06:52:11;102493.53;;;7.69;82.68
83894;BME280;73920;51.902;6.374;2024-01-30T06:54:38;102495.25;;;7.71;82.30
83894;BME280;73920;51.902;6.374;2024-01-30T06:57:05;102494.34;;;7.72;82.38
83894;BME280;73920;51.902;6.374;2024-01-30T06:59:31;102508.50;;;7.74;82.36
83894;BME280;73920;51.902;6.374;2024-01-30T07:01:58;102506.72;;;7.75;81.91
83894;BME280;73920;51.902;6.374;2024-01-30T07:04:24;102510.31;;;7.74;82.09
83894;BME280;73920;51.902;6.374;2024-01-30T07:06:50;102515.63;;;7.74;82.34
83894;BME280;73920;51.902;6.374;2024-01-30T07:09:16;102506.72;;;7.75;82.03
83894;BME280;73920;51.902;6.374;2024-01-30T07:11:42;102510.31;;;7.74;82.31
83894;BME280;73920;51.902;6.374;2024-01-30T07:14:09;102515.59;;;7.75;82.38
83894;BME280;73920;51.902;6.374;2024-01-30T07:16:35;102514.69;;;7.76;82.26
83894;BME280;73920;51.902;6.374;2024-01-30T07:19:02;102517.34;;;7.76;81.89
83894;BME280;73920;51.902;6.374;2024-01-30T07:21:28;102523.59;;;7.75;81.93
83894;BME280;73920;51.902;6.374;2024-01-30T07:23:55;102534.22;;;7.75;82.61
83894;BME280;73920;51.902;6.374;2024-01-30T07:26:21;102522.75;;;7.73;82.10
83894;BME280;73920;51.902;6.374;2024-01-30T07:28:47;102526.28;;;7.74;82.58
83894;BME280;73920;51.902;6.374;2024-01-30T07:31:14;102526.28;;;7.74;82.47
83894;BME280;73920;51.902;6.374;2024-01-30T07:33:40;102538.66;;;7.75;82.50
83894;BME280;73920;51.902;6.374;2024-01-30T07:36:06;102545.75;;;7.76;82.52
83894;BME280;73920;51.902;6.374;2024-01-30T07:38:33;102541.28;;;7.79;82.27
83894;BME280;73920;51.902;6.374;2024-01-30T07:40:59;102536.78;;;7.83;82.25
83894;BME280;73920;51.902;6.374;2024-01-30T07:43:26;102536.72;;;7.86;82.52
83894;BME280;73920;51.902;6.374;2024-01-30T07:45:52;102534.00;;;7.89;82.40
83894;BME280;73920;51.902;6.374;2024-01-30T07:48:18;102539.31;;;7.90;82.31
83894;BME280;73920;51.902;6.374;2024-01-30T07:50:44;102542.81;;;7.94;81.99
83894;BME280;73920;51.902;6.374;2024-01-30T07:53:11;102535.66;;;7.98;82.33
83894;BME280;73920;51.902;6.374;2024-01-30T07:55:37;102550.72;;;7.99;82.01
83894;BME280;73920;51.902;6.374;2024-01-30T07:58:03;102545.34;;;8.02;82.06
83894;BME280;73920;51.902;6.374;2024-01-30T08:00:30;102548.78;;;8.07;81.87
83894;BME280;73920;51.902;6.374;2024-01-30T08:02:56;102555.87;;;8.09;81.82
83894;BME280;73920;51.902;6.374;2024-01-30T08:05:23;102553.16;;;8.12;81.97
83894;BME280;73920;51.902;6.374;2024-01-30T08:07:49;102554.81;;;8.18;82.03
83894;BME280;73920;51.902;6.374;2024-01-30T08:10:16;102550.31;;;8.21;82.37
83894;BME280;73920;51.902;6.374;2024-01-30T08:12:43;102549.41;;;8.24;81.84
83894;BME280;73920;51.902;6.374;2024-01-30T08:15:10;102540.47;;;8.26;81.91
83894;BME280;73920;51.902;6.374;2024-01-30T08:17:36;102550.22;;;8.29;82.01
83894;BME280;73920;51.902;6.374;2024-01-30T08:20:02;102563.47;;;8.33;82.03
83894;BME280;73920;51.902;6.374;2024-01-30T08:22:29;102558.09;;;8.36;81.81
83894;BME280;73920;51.902;6.374;2024-01-30T08:24:55;102559.84;;;8.39;81.77
83894;BME280;73920;51.902;6.374;2024-01-30T08:27:21;102564.22;;;8.42;81.85
83894;BME280;73920;51.902;6.374;2024-01-30T08:29:48;102557.00;;;8.47;81.63
83894;BME280;73920;51.902;6.374;2024-01-30T08:32:14;102560.50;;;8.50;81.61
83894;BME280;73920;51.902;6.374;2024-01-30T08:34:41;102562.19;;;8.54;81.29
83894;BME280;73920;51.902;6.374;2024-01-30T08:37:07;102565.66;;;8.59;81.12
83894;BME280;73920;51.902;6.374;2024-01-30T08:39:33;102556.72;;;8.62;81.52
83894;BME280;73920;51.902;6.374;2024-01-30T08:42:00;102562.88;;;8.65;81.36
83894;BME280;73920;51.902;6.374;2024-01-30T08:44:26;102561.97;;;8.66;81.06
83894;BME280;73920;51.902;6.374;2024-01-30T08:46:52;102571.69;;;8.69;81.13
83894;BME280;73920;51.902;6.374;2024-01-30T08:49:20;102563.59;;;8.75;80.85
83894;BME280;73920;51.902;6.374;2024-01-30T08:51:47;102563.56;;;8.76;81.27
83894;BME280;73920;51.902;6.374;2024-01-30T08:54:13;102564.34;;;8.81;80.62
83894;BME280;73920;51.902;6.374;2024-01-30T08:56:39;102574.06;;;8.85;80.54
83894;BME280;73920;51.902;6.374;2024-01-30T08:59:05;102569.50;;;8.90;80.77
83894;BME280;73920;51.902;6.374;2024-01-30T09:01:31;102570.25;;;8.97;80.26
83894;BME280;73920;51.902;6.374;2024-01-30T09:03:58;102568.31;;;9.05;80.43
83894;BME280;73920;51.902;6.374;2024-01-30T09:06:24;102572.56;;;9.14;80.21
83894;BME280;73920;51.902;6.374;2024-01-30T09:08:50;102584.00;;;9.20;79.49
83894;BME280;73920;51.902;6.374;2024-01-30T09:11:16;102569.69;;;9.24;79.19
83894;BME280;73920;51.902;6.374;2024-01-30T09:13:43;102577.62;;;9.27;79.54
83894;BME280;73920;51.902;6.374;2024-01-30T09:16:09;102565.00;;;9.34;79.11
83894;BME280;73920;51.902;6.374;2024-01-30T09:18:35;102567.59;;;9.37;79.54
83894;BME280;73920;51.902;6.374;2024-01-30T09:21:01;102569.34;;;9.39;78.80
83894;BME280;73920;51.902;6.374;2024-01-30T09:23:28;102567.50;;;9.42;78.96
83894;BME280;73920;51.902;6.374;2024-01-30T09:25:54;102572.03;;;9.39;78.78
83894;BME280;73920;51.902;6.374;2024-01-30T09:28:21;102564.91;;;9.40;78.80
83894;BME280;73920;51.902;6.374;2024-01-30T09:30:47;102564.81;;;9.43;79.22
83894;BME280;73920;51.902;6.374;2024-01-30T09:33:13;102561.09;;;9.50;79.15
83894;BME280;73920;51.902;6.374;2024-01-30T09:35:39;102577.75;;;9.61;78.53
83894;BME280;73920;51.902;6.374;2024-01-30T09:38:06;102572.16;;;9.72;78.34
83894;BME280;73920;51.902;6.374;2024-01-30T09:40:32;102588.94;;;9.78;78.18
83894;BME280;73920;51.902;6.374;2024-01-30T09:42:59;102590.62;;;9.82;78.34
83894;BME280;73920;51.902;6.374;2024-01-30T09:45:26;102579.94;;;9.82;77.70
83894;BME280;73920;51.902;6.374;2024-01-30T09:47:53;102583.50;;;9.83;78.00
83894;BME280;73920;51.902;6.374;2024-01-30T09:50:20;102589.59;;;9.88;78.45
83894;BME280;73920;51.902;6.374;2024-01-30T09:52:47;102587.66;;;9.95;78.05
83894;BME280;73920;51.902;6.374;2024-01-30T09:55:14;102594.56;;;10.03;78.27
83894;BME280;73920;51.902;6.374;2024-01-30T09:57:42;102597.06;;;10.11;77.73
83894;BME280;73920;51.902;6.374;2024-01-30T10:00:09;102594.34;;;10.12;77.77
83894;BME280;73920;51.902;6.374;2024-01-30T10:02:36;102589.91;;;10.11;77.60
83894;BME280;73920;51.902;6.374;2024-01-30T10:05:03;102591.72;;;10.11;77.79
83894;BME280;73920;51.902;6.374;2024-01-30T10:07:30;102591.72;;;10.11;78.05
83894;BME280;73920;51.902;6.374;2024-01-30T10:09:56;102596.16;;;10.10;78.27
83894;BME280;73920;51.902;6.374;2024-01-30T10:12:25;102597.06;;;10.11;78.20
83894;BME280;73920;51.902;6.374;2024-01-30T10:14:51;102597.94;;;10.11;77.93
83894;BME280;73920;51.902;6.374;2024-01-30T10:17:18;102590.81;;;10.10;78.15
83894;BME280;73920;51.902;6.374;2024-01-30T10:19:44;102589.87;;;10.14;78.74
83894;BME280;73920;51.902;6.374;2024-01-30T10:22:11;102590.66;;;10.19;77.93
83894;BME280;73920;51.902;6.374;2024-01-30T10:24:38;102586.03;;;10.26;78.13
83894;BME280;73920;51.902;6.374;2024-01-30T10:27:05;102589.31;;;10.37;78.14
83894;BME280;73920;51.902;6.374;2024-01-30T10:29:32;102592.66;;;10.45;77.60
83894;BME280;73920;51.902;6.374;2024-01-30T10:32:02;102598.72;;;10.52;77.68
83894;BME280;73920;51.902;6.374;2024-01-30T10:34:29;102603.94;;;10.56;77.96
83894;BME280;73920;51.902;6.374;2024-01-30T10:39:32;102604.06;;;10.52;78.23
83894;BME280;73920;51.902;6.374;2024-01-30T10:42:05;102603.22;;;10.50;77.77
83894;BME280;73920;51.902;6.374;2024-01-30T10:47:12;102604.00;;;10.55;78.20
83894;BME280;73920;51.902;6.374;2024-01-30T10:49:39;102594.97;;;10.59;77.91
83894;BME280;73920;51.902;6.374;2024-01-30T10:52:06;102594.88;;;10.62;78.09
83894;BME280;73920;51.902;6.374;2024-01-30T10:54:35;102592.03;;;10.68;77.93
83894;BME280;73920;51.902;6.374;2024-01-30T10:57:03;102594.56;;;10.74;78.47
83894;BME280;73920;51.902;6.374;2024-01-30T10:59:31;102597.06;;;10.80;78.46
83894;BME280;73920;51.902;6.374;2024-01-30T11:01:59;102591.59;;;10.84;78.10
83894;BME280;73920;51.902;6.374;2024-01-30T11:04:26;102592.31;;;10.90;77.88
83894;BME280;73920;51.902;6.374;2024-01-30T11:06:52;102601.06;;;10.96;77.86
83894;BME280;73920;51.902;6.374;2024-01-30T11:09:20;102601.84;;;11.00;77.89
83894;BME280;73920;51.902;6.374;2024-01-30T11:11:51;102590.06;;;11.07;77.94
83894;BME280;73920;51.902;6.374;2024-01-30T11:14:23;102602.41;;;11.11;77.24
83894;BME280;73920;51.902;6.374;2024-01-30T11:16:50;102604.16;;;11.13;77.80
83894;BME280;73920;51.902;6.374;2024-01-30T11:19:23;102599.59;;;11.17;77.55
83894;BME280;73920;51.902;6.374;2024-01-30T11:21:50;102597.72;;;11.19;77.61
83894;BME280;73920;51.902;6.374;2024-01-30T11:24:19;102598.56;;;11.21;77.74
83894;BME280;73920;51.902;6.374;2024-01-30T11:26:45;102602.97;;;11.23;77.24
83894;BME280;73920;51.902;6.374;2024-01-30T11:29:14;102605.63;;;11.23;76.94
83894;BME280;73920;51.902;6.374;2024-01-30T11:31:40;102595.75;;;11.25;77.11
83894;BME280;73920;51.902;6.374;2024-01-30T11:34:06;102598.38;;;11.27;77.34
83894;BME280;73920;51.902;6.374;2024-01-30T11:36:35;102598.34;;;11.28;77.11
83894;BME280;73920;51.902;6.374;2024-01-30T11:39:03;102601.75;;;11.33;77.48
83894;BME280;73920;51.902;6.374;2024-01-30T11:41:30;102600.78;;;11.36;77.17
83894;BME280;73920;51.902;6.374;2024-01-30T11:43:56;102589.06;;;11.40;76.96
83894;BME280;73920;51.902;6.374;2024-01-30T11:46:25;102590.78;;;11.43;77.41
83894;BME280;73920;51.902;6.374;2024-01-30T11:48:52;102600.56;;;11.44;77.06
83894;BME280;73920;51.902;6.374;2024-01-30T11:51:18;102599.59;;;11.46;77.08
83894;BME280;73920;51.902;6.374;2024-01-30T11:53:49;102588.78;;;11.49;77.37
83894;BME280;73920;51.902;6.374;2024-01-30T11:56:16;102588.41;;;11.61;76.70
83894;BME280;73920;51.902;6.374;2024-01-30T11:58:45;102593.59;;;11.67;76.83
83894;BME280;73920;51.902;6.374;2024-01-30T12:01:12;102586.31;;;11.72;77.01
83894;BME280;73920;51.902;6.374;2024-01-30T12:03:38;102592.50;;;11.74;75.85
83894;BME280;73920;51.902;6.374;2024-01-30T12:06:05;102590.72;;;11.75;75.26
83894;BME280;73920;51.902;6.374;2024-01-30T12:08:31;102569.56;;;11.64;75.30
83894;BME280;73920;51.902;6.374;2024-01-30T12:10:58;102595.06;;;11.79;75.34
83894;BME280;73920;51.902;6.374;2024-01-30T12:13:25;102588.81;;;11.78;75.86
83894;BME280;73920;51.902;6.374;2024-01-30T12:15:52;102592.50;;;11.74;75.37
83894;BME280;73920;51.902;6.374;2024-01-30T12:18:21;102589.81;;;11.74;75.93
83894;BME280;73920;51.902;6.374;2024-01-30T12:20:57;102588.03;;;11.75;75.75
83894;BME280;73920;51.902;6.374;2024-01-30T12:23:24;102591.53;;;11.77;76.01
83894;BME280;73920;51.902;6.374;2024-01-30T12:25:51;102596.97;;;11.74;75.72
83894;BME280;73920;51.902;6.374;2024-01-30T12:28:19;102590.75;;;11.73;76.13
83894;BME280;73920;51.902;6.374;2024-01-30T12:30:45;102598.66;;;11.78;75.74
83894;BME280;73920;51.902;6.374;2024-01-30T12:33:18;102593.19;;;11.81;76.00
83894;BME280;73920;51.902;6.374;2024-01-30T12:35:47;102598.50;;;11.82;76.10
83894;BME280;73920;51.902;6.374;2024-01-30T12:38:14;102594.94;;;11.82;76.16
83894;BME280;73920;51.902;6.374;2024-01-30T12:40:41;102594.06;;;11.81;75.59
83894;BME280;73920;51.902;6.374;2024-01-30T12:43:07;102594.94;;;11.82;75.25
83894;BME280;73920;51.902;6.374;2024-01-30T12:45:34;102597.41;;;11.88;75.15
83894;BME280;73920;51.902;6.374;2024-01-30T12:48:00;102588.41;;;11.91;74.90
83894;BME280;73920;51.902;6.374;2024-01-30T12:50:26;102585.53;;;11.97;74.65
83894;BME280;73920;51.902;6.374;2024-01-30T12:52:52;102595.31;;;11.98;74.23
83894;BME280;73920;51.902;6.374;2024-01-30T12:55:19;102588.22;;;11.97;74.32
83894;BME280;73920;51.902;6.374;2024-01-30T12:57:45;102585.56;;;11.95;74.26
83894;BME280;73920;51.902;6.374;2024-01-30T13:00:11;102603.53;;;11.93;74.24